Terminal Aerodrome Forecast
Issued by NWS

Home | Current Version | Previous Version | Text Only | Print | Product List | Glossary On
Versions: 1 2 3 4 5 6 7 8 9 10 11 12 13 14 15 16 17 18
000
FTAK31 PAJN 181500 AAB
TAFAJN
TAF AMD
PAJN 181545Z 1816/1912 VRB05KT P6SM BCFG FEW002 BKN060 OVC100
     FM181800 10008KT P6SM FEW060 OVC100
     FM182100 10010KT P6SM VCSH SCT040 OVC100 WS020/07030KT
     FM190400 10007KT P6SM -SN BKN050 OVC070=

USA.gov is the U.S. government's official web portal to all federal, state and local government web resources and services.